Ужгород

Карта отелей и гостиниц, располагающихся рядом с аэропортом Ужгород :

Ужгород Закарпатская область 48° 38' 4.02" N, 22° 15' 47.2788" E
Код аэродрома ИКАО
UKLU
Код аэродрома RU
УКЛУ
Координаты
N48.63445° E022.26313°
Превышение над уровнем моря
117
Основная полоса
10/28
Курс магнитный
099/279
Длина основной ВПП
2038
Ширина основной ВПП
28
Покрытие основной ВПП
Твёрдое
Освещение ВПП
По запросу
Тип: 
Аэродром
Класс аэродрома: 
Международный
Принадлежность: 
ГА
Статус: 
Действующий
Страна: 
Украина
Регион: 
Закарпатская область
Дополнительная информация: 
Оператор: нет данных. Уникален тем, что ВС взлетают и заходят на посадку через воздушное пространство Словакии (гос. граница на удалении 100 м от торца ИВПП-10).
Погода: 

Авиационная погода в Ужгороде

Регион: 
Погода METAR: 
UKLU 211730Z 00000MPS 9999 SCT047 M02/M05 Q1018 NOSIG
Время наблюдения
2022-01-21T17:30:00Z
Температура C
-2.0
Точка росы
-5.0
Направление ветра
0
Скорость ветра (узлы)
0
Метео видимость
6.21
Облачность
SCT
Нижняя граница облачности (футы)
4700
Явления погоды
Условия полета
VFR
Аэропорт подробнее: 
SCT – разбросанная отдельная облачность;

Найти трансфер

С помощью этой формы Вы можете найти трансфер из аэропорта Ужгород в город, аэропорт или вокзал:

Погода в аэропортах:

Авиационная погода в аэропорту Имени Алексея Леонова

Регион: 
Погода METAR: 
UNEE 221800Z 00000MPS 2800 FU BR OVC004 M22/M24 Q1031 R23/920340 NOSIG RMK QFE750
Время наблюдения
2022-01-22T18:00:00Z
Температура C
-22.0
Точка росы
-24.0
Направление ветра
0
Скорость ветра (узлы)
0
Метео видимость
1.74
Облачность
OVC
Нижняя граница облачности (футы)
400
Явления погоды
FU BR
Условия полета
LIFR
Аэропорт подробнее: 
OVC – сплошная облачность;
BR – дымка (видимость от 1 до 9 км); FU – дым (видимость менее 10 км);

Авиационная погода в Магнитогорске

Погода METAR: 
USCM 221800Z 31002MPS 4700 BR SCT040 M20/M21 Q1028 R18/090060 TEMPO 0300 FZFG VV002 RMK QFE733
Время наблюдения
2022-01-22T18:00:00Z
Температура C
-20.0
Точка росы
-21.0
Направление ветра
310
Скорость ветра (узлы)
4
Метео видимость
2.92
Облачность
SCT
Нижняя граница облачности (футы)
4000
Явления погоды
BR
Условия полета
IFR
Аэропорт подробнее: 
SCT – разбросанная отдельная облачность;
BR – дымка (видимость от 1 до 9 км);

Авиационная погода в Минске

Регион: 
Погода METAR: 
UMMS 221743Z 35008G12MPS 2800 -SHSN BLSN BKN015CB BKN041 M04/M05 Q1012 NOSIG
Время наблюдения
2022-01-22T17:43:00Z
Температура C
-4.0
Точка росы
-5.0
Направление ветра
350
Скорость ветра (узлы)
16
Метео видимость
1.74
Облачность
BKN
BKN
Нижняя граница облачности (футы)
1500
4100
Явления погоды
-SHSN BLSN
Условия полета
IFR
Аэропорт подробнее: 
BKN – значительная (рассеянная, разорванная) облачность;
-SHSN - слабый ливневой снег, BLSN – метель низовая или общая;

Авиационная погода в Брянске

Регион: 
Погода METAR: 
UUBP 221800Z AUTO 24002MPS 9999 -SN M09/M10 Q1009 RMK QFE739/0986
Время наблюдения
2022-01-22T18:00:00Z
Температура C
-9.0
Точка росы
-10.0
Направление ветра
240
Скорость ветра (узлы)
4
Метео видимость
6.21
Облачность
Нижняя граница облачности (футы)
Явления погоды
-SN
Условия полета
Аэропорт подробнее: 
-SN – слабый снег;